Time;durP1;ratioP1;P1;durP2;ratioP2;P2;SDS_P1;SDS_P2;PMS_P1;PMS_P2;Temp;Humidity;BMP_temperature;BMP_pressure;BME280_temperature;BME280_humidity;BME280_pressure;Samples;Min_cycle;Max_cycle;Signal;HPM_P1;HPM_P2
2021/12/28 00:00:30;;;;;;;1.67;1.38;;;;;;;;;;5106310;28;20205;-66
2021/12/28 00:02:58;;;;;;;1.20;1.20;;;;;;;;;;5108144;28;20211;-66
2021/12/28 00:05:24;;;;;;;1.30;1.30;;;;;;;;;;5103493;28;20218;-66
2021/12/28 00:07:51;;;;;;;1.83;1.30;;;;;;;;;;5112040;28;20198;-66
2021/12/28 00:10:18;;;;;;;1.27;1.27;;;;;;;;;;5113078;28;20211;-66
2021/12/28 00:12:45;;;;;;;2.03;1.55;;;;;;;;;;5111777;28;20188;-66
2021/12/28 00:18:02;;;;;;;3.00;2.55;;;;;;;;;;5109171;28;20411;-66
2021/12/28 00:20:29;;;;;;;3.35;2.75;;;;;;;;;;5111892;28;20263;-66
2021/12/28 00:22:56;;;;;;;3.25;2.50;;;;;;;;;;5111301;28;20195;-66
2021/12/28 00:25:22;;;;;;;3.55;2.83;;;;;;;;;;5112801;28;20191;-66
2021/12/28 00:27:49;;;;;;;2.67;2.50;;;;;;;;;;5111703;28;20187;-66
2021/12/28 00:30:17;;;;;;;4.80;3.00;;;;;;;;;;5111380;28;20229;-66
2021/12/28 00:32:46;;;;;;;3.85;2.90;;;;;;;;;;5111239;28;20472;-66
2021/12/28 00:35:12;;;;;;;3.00;2.75;;;;;;;;;;5111466;28;20495;-66
2021/12/28 00:37:39;;;;;;;3.08;2.78;;;;;;;;;;5109986;28;20219;-67
2021/12/28 00:40:06;;;;;;;3.80;2.70;;;;;;;;;;5101996;28;20241;-66
2021/12/28 00:42:32;;;;;;;2.38;2.28;;;;;;;;;;5102139;28;20203;-66
2021/12/28 00:44:59;;;;;;;2.60;2.22;;;;;;;;;;5101955;28;20216;-66
2021/12/28 00:47:27;;;;;;;2.20;2.05;;;;;;;;;;5102267;28;20526;-67
2021/12/28 00:49:53;;;;;;;3.30;1.80;;;;;;;;;;5102288;28;20367;-67
2021/12/28 00:52:19;;;;;;;1.52;1.52;;;;;;;;;;5102209;28;20195;-66
2021/12/28 00:54:46;;;;;;;2.25;1.83;;;;;;;;;;5101631;28;20196;-66
2021/12/28 00:57:12;;;;;;;3.70;1.38;;;;;;;;;;5102044;28;20196;-66
2021/12/28 00:59:39;;;;;;;1.83;1.73;;;;;;;;;;5101743;28;20223;-66
2021/12/28 01:02:05;;;;;;;1.40;1.40;;;;;;;;;;5104568;28;20195;-66
2021/12/28 01:04:33;;;;;;;1.60;1.50;;;;;;;;;;5105534;28;20195;-66
2021/12/28 01:06:59;;;;;;;1.63;1.42;;;;;;;;;;5105516;28;20200;-66
2021/12/28 01:09:30;;;;;;;3.08;1.42;;;;;;;;;;5105566;28;20192;-66
2021/12/28 01:11:57;;;;;;;3.47;1.48;;;;;;;;;;5105693;28;20234;-66
2021/12/28 01:14:23;;;;;;;3.95;1.38;;;;;;;;;;5105663;28;20218;-66
2021/12/28 01:16:50;;;;;;;1.63;1.48;;;;;;;;;;5105277;28;20203;-66
2021/12/28 01:19:16;;;;;;;2.80;1.30;;;;;;;;;;5105561;28;20532;-66
2021/12/28 01:21:44;;;;;;;2.15;1.35;;;;;;;;;;5105239;28;20203;-66
2021/12/28 01:24:10;;;;;;;2.03;1.30;;;;;;;;;;5105275;28;20227;-66
2021/12/28 01:26:37;;;;;;;2.80;1.50;;;;;;;;;;5105338;28;20203;-66
2021/12/28 01:29:04;;;;;;;2.03;1.30;;;;;;;;;;5105121;28;20198;-66
2021/12/28 01:31:30;;;;;;;3.75;1.40;;;;;;;;;;5105195;28;20195;-66
2021/12/28 01:33:57;;;;;;;2.05;1.95;;;;;;;;;;5105046;28;20196;-66
2021/12/28 01:36:23;;;;;;;2.53;2.33;;;;;;;;;;5104806;28;20203;-66
2021/12/28 01:38:51;;;;;;;1.90;1.80;;;;;;;;;;5105081;28;20242;-66
2021/12/28 01:41:17;;;;;;;3.00;2.45;;;;;;;;;;5105210;28;20203;-66
2021/12/28 01:43:44;;;;;;;2.83;2.45;;;;;;;;;;5105221;28;20521;-66
2021/12/28 01:46:10;;;;;;;2.78;2.40;;;;;;;;;;5104716;28;20223;-66
2021/12/28 01:48:39;;;;;;;3.00;2.80;;;;;;;;;;5105151;28;20391;-66
2021/12/28 01:51:06;;;;;;;5.80;2.65;;;;;;;;;;5104504;28;20195;-66
2021/12/28 01:53:33;;;;;;;4.75;2.30;;;;;;;;;;5104929;28;20394;-66
2021/12/28 01:56:03;;;;;;;2.88;2.67;;;;;;;;;;5104610;28;20405;-66
2021/12/28 01:58:29;;;;;;;5.55;2.65;;;;;;;;;;5104573;28;20228;-66
2021/12/28 02:00:57;;;;;;;4.05;3.20;;;;;;;;;;5104960;28;20468;-66
2021/12/28 02:03:24;;;;;;;4.03;2.95;;;;;;;;;;5104694;28;20196;-66
2021/12/28 02:05:51;;;;;;;2.65;2.45;;;;;;;;;;5104552;28;20195;-66
2021/12/28 02:08:18;;;;;;;2.97;2.78;;;;;;;;;;5104766;28;20514;-66
2021/12/28 02:10:45;;;;;;;4.32;2.85;;;;;;;;;;5104430;28;20272;-66
2021/12/28 02:13:14;;;;;;;4.03;2.83;;;;;;;;;;5104050;28;20394;-66
2021/12/28 02:15:40;;;;;;;2.55;2.35;;;;;;;;;;5104348;28;20552;-66
2021/12/28 02:18:11;;;;;;;2.67;2.40;;;;;;;;;;5104423;28;20219;-66
2021/12/28 02:20:39;;;;;;;2.88;2.67;;;;;;;;;;5103904;28;20472;-66
2021/12/28 02:23:06;;;;;;;3.00;2.75;;;;;;;;;;5104436;28;20503;-66
2021/12/28 02:25:32;;;;;;;2.90;2.47;;;;;;;;;;5103930;28;20203;-66
2021/12/28 02:27:59;;;;;;;3.38;2.97;;;;;;;;;;5104197;28;20399;-66
2021/12/28 02:30:26;;;;;;;3.97;2.80;;;;;;;;;;5104032;28;20196;-66
2021/12/28 02:32:52;;;;;;;5.38;3.55;;;;;;;;;;5104250;28;20195;-66
2021/12/28 02:35:20;;;;;;;3.45;3.15;;;;;;;;;;5103761;28;20195;-66
2021/12/28 02:37:48;;;;;;;3.22;2.95;;;;;;;;;;5103979;28;20196;-66
2021/12/28 02:40:15;;;;;;;4.00;3.35;;;;;;;;;;5104155;28;20215;-66
2021/12/28 02:42:42;;;;;;;2.88;2.67;;;;;;;;;;5103679;28;20210;-66
2021/12/28 02:45:10;;;;;;;3.28;2.97;;;;;;;;;;5103739;28;20215;-66
2021/12/28 02:47:37;;;;;;;3.65;2.97;;;;;;;;;;5103018;28;20195;-66
2021/12/28 02:50:04;;;;;;;3.13;2.80;;;;;;;;;;5102754;28;20191;-66
2021/12/28 02:52:34;;;;;;;3.35;2.85;;;;;;;;;;5103791;28;20395;-66
2021/12/28 02:55:01;;;;;;;4.35;2.50;;;;;;;;;;5103307;28;20441;-66
2021/12/28 02:57:28;;;;;;;2.88;2.60;;;;;;;;;;5103687;28;20384;-66
2021/12/28 02:59:54;;;;;;;3.58;2.72;;;;;;;;;;5103397;28;20215;-66
2021/12/28 03:02:21;;;;;;;8.57;3.03;;;;;;;;;;5103727;28;20488;-66
2021/12/28 03:04:47;;;;;;;4.63;2.88;;;;;;;;;;5103735;28;20203;-66
2021/12/28 03:07:13;;;;;;;7.53;2.67;;;;;;;;;;5103367;28;20530;-66
2021/12/28 03:09:40;;;;;;;5.13;2.88;;;;;;;;;;5103204;28;20192;-66
2021/12/28 03:12:09;;;;;;;5.03;3.10;;;;;;;;;;5103703;28;20203;-66
2021/12/28 03:14:35;;;;;;;5.28;2.85;;;;;;;;;;5103096;28;20188;-66
2021/12/28 03:17:02;;;;;;;4.97;2.90;;;;;;;;;;5103356;28;20196;-66
2021/12/28 03:19:28;;;;;;;2.85;2.30;;;;;;;;;;5103190;28;20215;-66
2021/12/28 03:21:55;;;;;;;8.80;2.92;;;;;;;;;;5103065;28;20507;-66
2021/12/28 03:24:21;;;;;;;8.43;3.17;;;;;;;;;;5102005;28;20236;-66
2021/12/28 03:26:48;;;;;;;3.60;3.22;;;;;;;;;;5103046;28;20219;-66
2021/12/28 03:29:15;;;;;;;8.35;4.80;;;;;;;;;;5103039;28;20360;-66
2021/12/28 03:31:42;;;;;;;10.68;4.70;;;;;;;;;;5103145;28;20195;-66
2021/12/28 03:34:08;;;;;;;6.15;3.65;;;;;;;;;;5102823;28;20500;-66
2021/12/28 03:36:35;;;;;;;6.35;3.22;;;;;;;;;;5102494;28;20196;-66
2021/12/28 03:39:03;;;;;;;6.80;3.03;;;;;;;;;;5102673;28;20222;-66
2021/12/28 03:41:30;;;;;;;7.70;3.00;;;;;;;;;;5102970;28;20196;-66
2021/12/28 03:43:56;;;;;;;7.53;2.92;;;;;;;;;;5102842;28;20203;-66
2021/12/28 03:46:25;;;;;;;9.43;2.40;;;;;;;;;;5102778;28;20215;-66
2021/12/28 03:48:52;;;;;;;5.28;2.90;;;;;;;;;;5102612;28;20361;-66
2021/12/28 03:51:19;;;;;;;6.88;2.70;;;;;;;;;;5102942;28;20196;-66
2021/12/28 03:53:46;;;;;;;7.00;3.00;;;;;;;;;;5102716;28;20202;-67
2021/12/28 03:56:13;;;;;;;5.53;2.42;;;;;;;;;;5102633;28;20227;-66
2021/12/28 03:58:40;;;;;;;4.70;2.63;;;;;;;;;;5102391;28;20220;-66
2021/12/28 04:01:07;;;;;;;7.10;2.80;;;;;;;;;;5102392;28;20215;-66
2021/12/28 04:03:34;;;;;;;8.02;2.10;;;;;;;;;;5102439;28;20226;-66
2021/12/28 04:06:07;;;;;;;7.30;2.58;;;;;;;;;;5102200;28;20230;-66
2021/12/28 04:08:34;;;;;;;8.30;2.22;;;;;;;;;;5102662;28;20195;-66
2021/12/28 04:11:13;;;;;;;6.63;2.42;;;;;;;;;;5102565;28;20195;-66
2021/12/28 04:13:40;;;;;;;4.30;2.40;;;;;;;;;;5102656;28;20190;-66
2021/12/28 04:16:06;;;;;;;2.92;1.92;;;;;;;;;;5102047;28;20203;-66
2021/12/28 04:18:33;;;;;;;4.78;2.40;;;;;;;;;;5102293;28;20195;-66
2021/12/28 04:21:01;;;;;;;2.55;2.15;;;;;;;;;;5102278;28;20195;-66
2021/12/28 04:23:27;;;;;;;4.78;2.47;;;;;;;;;;5102535;28;20500;-66
2021/12/28 04:25:54;;;;;;;2.63;2.42;;;;;;;;;;5102045;28;20196;-66
2021/12/28 04:28:20;;;;;;;3.55;2.10;;;;;;;;;;5102441;28;20401;-66
2021/12/28 04:30:46;;;;;;;5.22;2.28;;;;;;;;;;5102020;28;20192;-66
2021/12/28 04:33:13;;;;;;;5.25;2.28;;;;;;;;;;5102696;28;20196;-66
2021/12/28 04:35:39;;;;;;;3.42;1.65;;;;;;;;;;5104168;28;20492;-66
2021/12/28 04:38:07;;;;;;;4.75;1.92;;;;;;;;;;5106440;28;20196;-66
2021/12/28 04:40:33;;;;;;;5.60;1.90;;;;;;;;;;5106039;28;20219;-66
2021/12/28 04:43:00;;;;;;;5.20;1.95;;;;;;;;;;5106085;28;20196;-66
2021/12/28 04:45:26;;;;;;;3.03;2.00;;;;;;;;;;5105928;28;20215;-66
2021/12/28 04:47:53;;;;;;;7.40;2.20;;;;;;;;;;5105687;28;20196;-67
2021/12/28 04:50:19;;;;;;;3.33;1.70;;;;;;;;;;5106010;28;20192;-66
2021/12/28 04:52:46;;;;;;;6.72;2.08;;;;;;;;;;5105571;28;20233;-66
2021/12/28 04:55:15;;;;;;;4.72;1.98;;;;;;;;;;5105715;28;20195;-66
2021/12/28 04:57:42;;;;;;;6.30;2.25;;;;;;;;;;5105769;28;20195;-66
2021/12/28 05:00:10;;;;;;;7.28;2.30;;;;;;;;;;5105651;28;20237;-66
2021/12/28 05:02:36;;;;;;;3.58;1.80;;;;;;;;;;5106009;28;20203;-66
2021/12/28 05:05:03;;;;;;;5.05;2.20;;;;;;;;;;5105738;28;20289;-66
2021/12/28 05:07:30;;;;;;;9.25;2.10;;;;;;;;;;5105869;28;20204;-66
2021/12/28 05:09:58;;;;;;;3.83;1.58;;;;;;;;;;5105598;28;20500;-66
2021/12/28 05:12:27;;;;;;;5.70;2.17;;;;;;;;;;5106008;28;20200;-66
2021/12/28 05:14:54;;;;;;;8.82;2.05;;;;;;;;;;5105551;28;20420;-66
2021/12/28 05:17:20;;;;;;;3.83;2.20;;;;;;;;;;5105579;28;20204;-66
2021/12/28 05:19:46;;;;;;;5.57;1.65;;;;;;;;;;5105556;28;20228;-66
2021/12/28 05:22:13;;;;;;;7.60;2.38;;;;;;;;;;5105285;28;20203;-66
2021/12/28 05:24:40;;;;;;;7.18;2.70;;;;;;;;;;5105210;28;20500;-66
2021/12/28 05:27:06;;;;;;;6.78;2.00;;;;;;;;;;5105298;28;20196;-66
2021/12/28 05:29:34;;;;;;;10.75;2.85;;;;;;;;;;5105387;28;20503;-66
2021/12/28 05:32:00;;;;;;;6.03;2.47;;;;;;;;;;5105176;28;20202;-66
2021/12/28 05:34:27;;;;;;;9.60;2.70;;;;;;;;;;5105139;28;20196;-66
2021/12/28 05:36:53;;;;;;;3.72;2.17;;;;;;;;;;5105173;28;20196;-67
2021/12/28 05:39:20;;;;;;;5.70;2.15;;;;;;;;;;5104954;28;20215;-66
2021/12/28 05:41:46;;;;;;;7.22;2.20;;;;;;;;;;5104959;28;20196;-66
2021/12/28 05:44:13;;;;;;;4.70;2.25;;;;;;;;;;5105139;28;20195;-67
2021/12/28 05:46:40;;;;;;;4.45;2.05;;;;;;;;;;5103847;28;20228;-67
2021/12/28 05:49:07;;;;;;;9.05;1.95;;;;;;;;;;5104793;28;20196;-66
2021/12/28 05:51:33;;;;;;;3.38;2.03;;;;;;;;;;5105065;28;20191;-67
2021/12/28 05:54:00;;;;;;;2.92;2.03;;;;;;;;;;5105087;28;20356;-67
2021/12/28 05:56:26;;;;;;;4.88;1.92;;;;;;;;;;5104471;28;20196;-67
2021/12/28 05:58:52;;;;;;;5.28;2.08;;;;;;;;;;5104624;28;20202;-67
2021/12/28 06:01:19;;;;;;;3.55;2.05;;;;;;;;;;5104618;28;20207;-67
2021/12/28 06:03:47;;;;;;;6.60;2.33;;;;;;;;;;5104835;28;20196;-66
2021/12/28 06:06:13;;;;;;;4.43;1.98;;;;;;;;;;5104543;28;20208;-66
2021/12/28 06:08:39;;;;;;;1.90;1.80;;;;;;;;;;5104553;28;20395;-67
2021/12/28 06:11:11;;;;;;;5.13;2.50;;;;;;;;;;5104747;28;20361;-66
2021/12/28 06:13:40;;;;;;;6.57;2.40;;;;;;;;;;5104691;28;20514;-66
2021/12/28 06:16:06;;;;;;;5.57;1.92;;;;;;;;;;5104221;28;20267;-67
2021/12/28 06:18:33;;;;;;;2.53;1.63;;;;;;;;;;5104436;28;20196;-67
2021/12/28 06:21:00;;;;;;;1.52;1.42;;;;;;;;;;5104172;28;20220;-67
2021/12/28 06:23:27;;;;;;;1.50;1.40;;;;;;;;;;5104185;28;20203;-66
2021/12/28 06:25:53;;;;;;;2.45;1.30;;;;;;;;;;5104252;28;20195;-66
2021/12/28 06:28:20;;;;;;;1.48;1.38;;;;;;;;;;5104042;28;20195;-67
2021/12/28 06:30:46;;;;;;;1.40;1.30;;;;;;;;;;5104070;28;20192;-66
2021/12/28 06:33:13;;;;;;;1.63;1.52;;;;;;;;;;5104061;28;20195;-66
2021/12/28 06:35:39;;;;;;;2.92;1.33;;;;;;;;;;5103814;28;20403;-67
2021/12/28 06:38:07;;;;;;;6.18;1.45;;;;;;;;;;5103890;28;20211;-66
2021/12/28 06:40:34;;;;;;;4.30;1.40;;;;;;;;;;5104065;28;20222;-67
2021/12/28 06:43:00;;;;;;;2.15;1.67;;;;;;;;;;5103943;28;20368;-67
2021/12/28 06:45:27;;;;;;;1.67;1.48;;;;;;;;;;5103712;28;20223;-67
2021/12/28 06:47:54;;;;;;;1.15;1.15;;;;;;;;;;5104050;28;20383;-67
2021/12/28 06:50:20;;;;;;;1.17;1.05;;;;;;;;;;5103556;28;20200;-66
2021/12/28 06:52:46;;;;;;;1.65;0.98;;;;;;;;;;5103720;28;20196;-66
2021/12/28 06:55:14;;;;;;;1.33;1.17;;;;;;;;;;5103507;28;20387;-68
2021/12/28 06:57:41;;;;;;;0.93;0.93;;;;;;;;;;5103424;28;20210;-68
2021/12/28 07:00:08;;;;;;;1.15;1.05;;;;;;;;;;5103375;28;20222;-68
2021/12/28 07:02:35;;;;;;;1.45;1.45;;;;;;;;;;5103307;28;20196;-68
2021/12/28 07:05:01;;;;;;;1.15;1.15;;;;;;;;;;5103087;28;20196;-68
2021/12/28 07:07:28;;;;;;;1.20;1.20;;;;;;;;;;5103405;28;20203;-68
2021/12/28 07:09:54;;;;;;;1.63;1.20;;;;;;;;;;5103599;28;20188;-68
2021/12/28 07:12:22;;;;;;;1.52;1.20;;;;;;;;;;5103436;28;20207;-68
2021/12/28 07:14:48;;;;;;;1.42;1.00;;;;;;;;;;5102991;28;20202;-68
2021/12/28 07:17:15;;;;;;;1.13;1.08;;;;;;;;;;5103498;28;20200;-68
2021/12/28 07:19:41;;;;;;;1.15;1.15;;;;;;;;;;5102948;28;20215;-68
2021/12/28 07:22:08;;;;;;;2.80;1.20;;;;;;;;;;5103125;28;20203;-68
2021/12/28 07:24:34;;;;;;;2.42;1.30;;;;;;;;;;5103175;28;20503;-68
2021/12/28 07:27:01;;;;;;;1.60;1.50;;;;;;;;;;5103162;28;20195;-68
2021/12/28 07:29:29;;;;;;;1.50;1.23;;;;;;;;;;5102954;28;20196;-68
2021/12/28 07:31:55;;;;;;;1.52;1.42;;;;;;;;;;5103063;28;20380;-68
2021/12/28 07:34:21;;;;;;;1.52;1.20;;;;;;;;;;5102843;28;20203;-68
2021/12/28 07:36:48;;;;;;;3.53;1.75;;;;;;;;;;5103198;28;20217;-68
2021/12/28 07:39:15;;;;;;;3.78;1.75;;;;;;;;;;5102902;28;20202;-68
2021/12/28 07:41:41;;;;;;;2.72;2.00;;;;;;;;;;5102774;28;20451;-68
2021/12/28 07:44:08;;;;;;;2.58;1.75;;;;;;;;;;5102792;28;20195;-68
2021/12/28 07:46:36;;;;;;;2.20;2.00;;;;;;;;;;5102649;28;20555;-68
2021/12/28 07:49:02;;;;;;;2.92;1.90;;;;;;;;;;5102544;28;20196;-68
2021/12/28 07:51:28;;;;;;;2.63;1.85;;;;;;;;;;5102612;28;20507;-68
2021/12/28 07:53:55;;;;;;;2.80;1.80;;;;;;;;;;5102492;28;20203;-68
2021/12/28 07:56:21;;;;;;;8.82;4.95;;;;;;;;;;5102426;28;20196;-68
2021/12/28 07:58:48;;;;;;;11.70;5.22;;;;;;;;;;5102415;28;20519;-68
2021/12/28 08:01:14;;;;;;;6.28;3.45;;;;;;;;;;5102345;28;20306;-68
2021/12/28 08:03:42;;;;;;;6.97;3.20;;;;;;;;;;5102453;28;20215;-68
2021/12/28 08:06:08;;;;;;;2.90;1.90;;;;;;;;;;5102002;28;20336;-68
2021/12/28 08:08:35;;;;;;;2.35;1.65;;;;;;;;;;5102354;28;20202;-68
2021/12/28 08:11:01;;;;;;;3.55;1.40;;;;;;;;;;5101465;28;20192;-68
2021/12/28 08:13:27;;;;;;;2.63;1.25;;;;;;;;;;5102051;28;20203;-68
2021/12/28 08:15:55;;;;;;;0.98;0.93;;;;;;;;;;5101547;28;20202;-68
2021/12/28 08:18:21;;;;;;;1.52;0.80;;;;;;;;;;5101906;28;20196;-68
2021/12/28 08:20:49;;;;;;;1.60;0.80;;;;;;;;;;5102092;28;20220;-68
2021/12/28 08:23:15;;;;;;;2.30;2.20;;;;;;;;;;5101731;28;20196;-68
2021/12/28 08:25:42;;;;;;;1.00;1.00;;;;;;;;;;5101694;28;20451;-68
2021/12/28 08:28:09;;;;;;;2.38;2.28;;;;;;;;;;5102102;28;20196;-68
2021/12/28 08:30:36;;;;;;;1.55;1.55;;;;;;;;;;5101639;28;20530;-68
2021/12/28 08:33:03;;;;;;;1.50;1.50;;;;;;;;;;5102065;28;20196;-68
2021/12/28 08:35:29;;;;;;;3.53;2.65;;;;;;;;;;5101535;28;20202;-68
2021/12/28 08:37:57;;;;;;;0.70;0.70;;;;;;;;;;5100502;28;20226;-67
2021/12/28 08:40:24;;;;;;;0.50;0.50;;;;;;;;;;5100371;28;20219;-67
2021/12/28 08:42:50;;;;;;;2.90;1.15;;;;;;;;;;5100474;28;20203;-67
2021/12/28 08:45:17;;;;;;;5.75;4.00;;;;;;;;;;5100648;28;20224;-67
2021/12/28 08:47:45;;;;;;;25.35;13.23;;;;;;;;;;5100672;28;20196;-67
2021/12/28 08:50:11;;;;;;;13.95;7.68;;;;;;;;;;5100600;28;20199;-67
2021/12/28 08:52:38;;;;;;;8.45;5.70;;;;;;;;;;5100901;28;20202;-67
2021/12/28 08:55:06;;;;;;;12.23;7.38;;;;;;;;;;5100835;28;20223;-67
2021/12/28 08:57:33;;;;;;;3.25;2.80;;;;;;;;;;5100662;28;20207;-67
2021/12/28 08:59:59;;;;;;;15.15;8.95;;;;;;;;;;5100522;28;20403;-67
2021/12/28 09:02:25;;;;;;;20.25;14.02;;;;;;;;;;5100973;28;20195;-67
2021/12/28 09:04:52;;;;;;;8.20;6.78;;;;;;;;;;5100679;28;20207;-55
2021/12/28 09:07:19;;;;;;;4.65;4.35;;;;;;;;;;5100673;28;20444;-55
2021/12/28 09:09:45;;;;;;;5.65;5.22;;;;;;;;;;5100552;28;20341;-57
2021/12/28 09:12:13;;;;;;;3.00;2.90;;;;;;;;;;5100093;28;20192;-55
2021/12/28 09:14:40;;;;;;;2.22;2.13;;;;;;;;;;5100613;28;20192;-54
2021/12/28 09:17:07;;;;;;;0.90;0.90;;;;;;;;;;5100541;28;20196;-54
2021/12/28 09:19:33;;;;;;;1.20;1.20;;;;;;;;;;5100838;28;20331;-54
2021/12/28 09:22:00;;;;;;;1.45;0.75;;;;;;;;;;5101242;28;20226;-56
2021/12/28 09:24:26;;;;;;;0.95;0.88;;;;;;;;;;5104077;28;20203;-55
2021/12/28 09:26:53;;;;;;;0.77;0.60;;;;;;;;;;5104361;28;20397;-56
2021/12/28 09:29:20;;;;;;;2.00;0.82;;;;;;;;;;5104184;28;20196;-54
2021/12/28 09:31:47;;;;;;;0.60;0.60;;;;;;;;;;5104108;28;20199;-56
2021/12/28 09:34:13;;;;;;;0.60;0.60;;;;;;;;;;5104444;28;20196;-56
2021/12/28 09:36:40;;;;;;;1.13;1.10;;;;;;;;;;5103898;28;20421;-57
2021/12/28 09:39:07;;;;;;;3.22;2.92;;;;;;;;;;5103604;28;20203;-54
2021/12/28 09:41:33;;;;;;;2.38;2.17;;;;;;;;;;5104090;28;20321;-55
2021/12/28 09:44:00;;;;;;;3.08;2.78;;;;;;;;;;5103716;28;20202;-56
2021/12/28 09:46:28;;;;;;;3.10;2.85;;;;;;;;;;5103457;28;20215;-55
2021/12/28 09:48:54;;;;;;;5.15;3.08;;;;;;;;;;5103791;28;20196;-55
2021/12/28 09:51:21;;;;;;;3.17;2.72;;;;;;;;;;5103909;28;20199;-56
2021/12/28 09:53:47;;;;;;;2.42;2.28;;;;;;;;;;5103561;28;20233;-57
2021/12/28 09:56:14;;;;;;;2.50;2.40;;;;;;;;;;5103191;28;20391;-55
2021/12/28 09:58:41;;;;;;;1.33;1.33;;;;;;;;;;5103399;28;20203;-54
2021/12/28 10:01:09;;;;;;;0.50;0.50;;;;;;;;;;5103596;28;20220;-56
2021/12/28 10:03:37;;;;;;;1.38;1.33;;;;;;;;;;5103424;28;20196;-55
2021/12/28 10:06:14;;;;;;;0.40;0.40;;;;;;;;;;5103175;28;20196;-55
2021/12/28 10:08:41;;;;;;;0.50;0.50;;;;;;;;;;5103581;28;20197;-56
2021/12/28 10:11:07;;;;;;;0.40;0.40;;;;;;;;;;5103366;28;20218;-55
2021/12/28 10:13:34;;;;;;;0.45;0.45;;;;;;;;;;5103398;28;20287;-55
2021/12/28 10:16:00;;;;;;;0.40;0.40;;;;;;;;;;5103152;28;20196;-54
2021/12/28 10:18:28;;;;;;;0.43;0.43;;;;;;;;;;5103090;28;20295;-55
2021/12/28 10:20:57;;;;;;;1.55;0.20;;;;;;;;;;5102766;28;20283;-54
2021/12/28 10:23:25;;;;;;;0.30;0.30;;;;;;;;;;5102953;28;20204;-54
2021/12/28 10:25:53;;;;;;;0.30;0.30;;;;;;;;;;5103210;28;20195;-54
2021/12/28 10:28:21;;;;;;;0.50;0.50;;;;;;;;;;5102996;28;20217;-55
2021/12/28 10:30:49;;;;;;;0.40;0.40;;;;;;;;;;5102794;28;20508;-54
2021/12/28 10:33:16;;;;;;;0.65;0.45;;;;;;;;;;5102253;28;20203;-55
2021/12/28 10:35:44;;;;;;;0.50;0.50;;;;;;;;;;5102920;28;20395;-56
2021/12/28 10:38:12;;;;;;;79.00;17.25;;;;;;;;;;5102951;28;20196;-56
2021/12/28 10:40:40;;;;;;;1.60;1.10;;;;;;;;;;5102960;28;20257;-55
2021/12/28 10:43:07;;;;;;;0.50;0.50;;;;;;;;;;5102553;28;20196;-56
2021/12/28 10:45:37;;;;;;;0.57;0.57;;;;;;;;;;5102361;28;20590;-56
2021/12/28 10:48:05;;;;;;;0.50;0.50;;;;;;;;;;5102520;28;20196;-54
2021/12/28 10:50:35;;;;;;;0.93;0.40;;;;;;;;;;5102468;28;20204;-54
2021/12/28 10:53:06;;;;;;;0.88;0.60;;;;;;;;;;5102481;28;20203;-55
2021/12/28 10:55:34;;;;;;;0.60;0.60;;;;;;;;;;5110655;28;20464;-56
2021/12/28 10:58:02;;;;;;;0.52;0.50;;;;;;;;;;5112398;28;20578;-55
2021/12/28 11:00:29;;;;;;;1.00;0.30;;;;;;;;;;5111502;28;20341;-55
2021/12/28 11:03:14;;;;;;;0.80;0.30;;;;;;;;;;5111465;28;20379;-54
2021/12/28 11:05:41;;;;;;;0.40;0.40;;;;;;;;;;5111888;28;20221;-56
2021/12/28 11:08:08;;;;;;;0.30;0.30;;;;;;;;;;5111545;28;20210;-55
2021/12/28 11:10:37;;;;;;;0.75;0.40;;;;;;;;;;5113050;28;20198;-55
2021/12/28 11:13:04;;;;;;;0.30;0.30;;;;;;;;;;5112069;28;20192;-56
2021/12/28 11:15:32;;;;;;;0.38;0.38;;;;;;;;;;5116603;28;20191;-56
2021/12/28 11:17:58;;;;;;;0.43;0.43;;;;;;;;;;5122328;28;20222;-56
2021/12/28 11:20:31;;;;;;;0.25;0.25;;;;;;;;;;5122563;28;20217;-57
2021/12/28 11:23:08;;;;;;;0.70;0.70;;;;;;;;;;5122420;28;20395;-56
2021/12/28 11:25:36;;;;;;;0.40;0.40;;;;;;;;;;5122023;28;20446;-57
2021/12/28 11:28:13;;;;;;;0.50;0.50;;;;;;;;;;5122576;28;20440;-55
2021/12/28 11:30:40;;;;;;;0.50;0.50;;;;;;;;;;5122574;28;20212;-56
2021/12/28 11:33:07;;;;;;;1.20;1.10;;;;;;;;;;5122192;27;20195;-54
2021/12/28 11:35:33;;;;;;;0.57;0.57;;;;;;;;;;5122142;28;20256;-56
2021/12/28 11:38:00;;;;;;;0.70;0.70;;;;;;;;;;5122364;28;20194;-54
2021/12/28 11:40:27;;;;;;;1.42;1.33;;;;;;;;;;5122246;28;20402;-56
2021/12/28 11:42:55;;;;;;;1.05;0.98;;;;;;;;;;5122069;28;20435;-55
2021/12/28 11:45:21;;;;;;;1.17;1.17;;;;;;;;;;5121211;28;20398;-56
2021/12/28 11:47:48;;;;;;;0.45;0.45;;;;;;;;;;5121925;28;20195;-57
2021/12/28 11:50:16;;;;;;;0.35;0.35;;;;;;;;;;5121660;28;20202;-55
2021/12/28 11:52:42;;;;;;;3.88;3.58;;;;;;;;;;5121998;28;20199;-56
2021/12/28 11:55:10;;;;;;;5.93;5.15;;;;;;;;;;5121722;28;20203;-56
2021/12/28 11:57:36;;;;;;;1.42;1.38;;;;;;;;;;5121782;28;20293;-57
2021/12/28 12:00:05;;;;;;;1.10;1.10;;;;;;;;;;5121446;28;20433;-54
2021/12/28 12:02:36;;;;;;;0.22;0.22;;;;;;;;;;5121117;28;20732;-56
2021/12/28 12:05:12;;;;;;;0.52;0.50;;;;;;;;;;5121623;28;20207;-55
2021/12/28 12:07:39;;;;;;;0.30;0.30;;;;;;;;;;5121873;28;20183;-55
2021/12/28 12:10:30;;;;;;;0.20;0.20;;;;;;;;;;5121842;28;20490;-55
2021/12/28 12:13:06;;;;;;;0.30;0.30;;;;;;;;;;5121787;28;20179;-56
2021/12/28 12:15:41;;;;;;;0.95;0.30;;;;;;;;;;5121465;28;20195;-55
2021/12/28 12:18:12;;;;;;;0.30;0.30;;;;;;;;;;5121720;28;20194;-55
2021/12/28 12:20:45;;;;;;;0.45;0.30;;;;;;;;;;5121528;28;20276;-54
2021/12/28 12:23:19;;;;;;;0.30;0.30;;;;;;;;;;5121428;28;20400;-56
2021/12/28 12:25:48;;;;;;;0.35;0.35;;;;;;;;;;5121167;28;20217;-55
2021/12/28 12:28:15;;;;;;;0.50;0.50;;;;;;;;;;5121687;28;20216;-55
2021/12/28 12:30:45;;;;;;;0.93;0.52;;;;;;;;;;5121632;28;20206;-55
2021/12/28 12:33:12;;;;;;;0.70;0.70;;;;;;;;;;5121495;28;20213;-55
2021/12/28 12:35:40;;;;;;;1.20;0.60;;;;;;;;;;5120761;28;20195;-54
2021/12/28 12:38:22;;;;;;;0.90;0.90;;;;;;;;;;5120317;28;20262;-56
2021/12/28 12:40:51;;;;;;;0.70;0.70;;;;;;;;;;5120981;28;20199;-55
2021/12/28 12:43:18;;;;;;;1.38;0.60;;;;;;;;;;5121160;28;20237;-55
2021/12/28 12:46:05;;;;;;;0.65;0.65;;;;;;;;;;5120872;28;20214;-54
2021/12/28 12:48:31;;;;;;;0.57;0.57;;;;;;;;;;5120900;28;20214;-56
2021/12/28 12:51:13;;;;;;;0.57;0.57;;;;;;;;;;5120958;28;20203;-56
2021/12/28 12:53:43;;;;;;;0.60;0.60;;;;;;;;;;5120963;28;20195;-54
2021/12/28 12:56:11;;;;;;;0.93;0.80;;;;;;;;;;5121950;28;20195;-55
2021/12/28 12:58:41;;;;;;;0.80;0.80;;;;;;;;;;5124967;28;20203;-55
2021/12/28 13:01:18;;;;;;;0.60;0.60;;;;;;;;;;5124765;28;20400;-56
2021/12/28 13:03:44;;;;;;;0.60;0.60;;;;;;;;;;5125217;28;20206;-56
2021/12/28 13:06:11;;;;;;;0.73;0.70;;;;;;;;;;5124606;28;20199;-55
2021/12/28 13:08:37;;;;;;;2.78;0.98;;;;;;;;;;5125027;28;20341;-54
2021/12/28 13:11:03;;;;;;;2.88;1.02;;;;;;;;;;5124755;28;20195;-55
2021/12/28 13:13:30;;;;;;;1.05;0.93;;;;;;;;;;5124951;28;20195;-54
2021/12/28 13:15:56;;;;;;;1.13;1.00;;;;;;;;;;5124313;28;20195;-56
2021/12/28 13:18:24;;;;;;;1.27;1.02;;;;;;;;;;5124576;28;20202;-55
2021/12/28 13:20:51;;;;;;;3.25;1.77;;;;;;;;;;5124529;28;20195;-57
2021/12/28 13:23:17;;;;;;;0.90;0.90;;;;;;;;;;5124451;28;20225;-55
2021/12/28 13:25:46;;;;;;;0.85;0.85;;;;;;;;;;5124154;28;20195;-56
2021/12/28 13:28:18;;;;;;;2.30;0.75;;;;;;;;;;5124551;28;20219;-54
2021/12/28 13:30:45;;;;;;;0.60;0.60;;;;;;;;;;5124101;28;20203;-56
2021/12/28 13:33:12;;;;;;;0.40;0.38;;;;;;;;;;5124222;28;20206;-54
2021/12/28 13:35:42;;;;;;;0.43;0.43;;;;;;;;;;5123637;28;20187;-55
2021/12/28 13:38:09;;;;;;;0.30;0.30;;;;;;;;;;5123689;28;20261;-56
2021/12/28 13:40:36;;;;;;;0.57;0.57;;;;;;;;;;5123725;28;20195;-56
2021/12/28 13:43:07;;;;;;;0.40;0.40;;;;;;;;;;5123553;28;20215;-55
2021/12/28 13:45:35;;;;;;;0.80;0.80;;;;;;;;;;5123581;28;20360;-55
2021/12/28 13:48:04;;;;;;;0.43;0.43;;;;;;;;;;5123484;28;20206;-55
2021/12/28 13:50:30;;;;;;;0.75;0.50;;;;;;;;;;5123497;28;20195;-56
2021/12/28 13:52:59;;;;;;;0.57;0.57;;;;;;;;;;5123535;28;20191;-56
2021/12/28 13:55:27;;;;;;;1.70;0.80;;;;;;;;;;5123139;28;20195;-57
2021/12/28 13:57:54;;;;;;;1.23;0.50;;;;;;;;;;5123224;28;20195;-56
2021/12/28 14:00:22;;;;;;;0.40;0.40;;;;;;;;;;5123930;28;20190;-54
2021/12/28 14:02:56;;;;;;;0.65;0.65;;;;;;;;;;5123106;27;20215;-56
2021/12/28 14:05:23;;;;;;;1.95;0.77;;;;;;;;;;5122857;28;20203;-54
2021/12/28 14:07:49;;;;;;;1.52;0.95;;;;;;;;;;5122511;28;20195;-56
2021/12/28 14:10:17;;;;;;;1.08;0.82;;;;;;;;;;5123104;28;20226;-55
2021/12/28 14:12:59;;;;;;;1.80;0.73;;;;;;;;;;5122858;28;20192;-54
2021/12/28 14:15:26;;;;;;;1.75;0.50;;;;;;;;;;5122466;28;20195;-56
2021/12/28 14:17:52;;;;;;;0.52;0.40;;;;;;;;;;5122917;28;20196;-55
2021/12/28 14:20:26;;;;;;;0.55;0.55;;;;;;;;;;5122682;28;20195;-54
2021/12/28 14:22:52;;;;;;;1.05;0.68;;;;;;;;;;5122716;28;20206;-55
2021/12/28 14:25:20;;;;;;;1.13;1.00;;;;;;;;;;5122569;28;20202;-53
2021/12/28 14:27:54;;;;;;;0.85;0.85;;;;;;;;;;5122944;28;20487;-55
2021/12/28 14:30:21;;;;;;;1.58;1.10;;;;;;;;;;5122762;27;20263;-55
2021/12/28 14:32:49;;;;;;;1.85;0.93;;;;;;;;;;5122579;28;20259;-54
2021/12/28 14:35:17;;;;;;;2.40;1.27;;;;;;;;;;5122661;28;20203;-56
2021/12/28 14:37:44;;;;;;;1.10;1.10;;;;;;;;;;5122728;28;20203;-56
2021/12/28 14:40:15;;;;;;;2.35;1.65;;;;;;;;;;5122480;28;20195;-55
2021/12/28 14:42:43;;;;;;;4.03;3.83;;;;;;;;;;5122573;28;20214;-55
2021/12/28 14:45:11;;;;;;;2.80;2.60;;;;;;;;;;5122495;28;20215;-55
2021/12/28 14:47:38;;;;;;;2.08;1.98;;;;;;;;;;5122625;28;20269;-55